CheckWX is a tool to help pilots better visualize weather data.  It is not intended as a substitute for an official pre-flight weather briefing.

01:23:48 UTC

KPVD TAF
Theodore Francis Green State Airport
Providence, Rhode Island, USA
KPVD 070537Z 0706/0806 16004KT P6SM BKN010 FM071000 14003KT P6SM BKN025 FM071300 13005KT P6SM BKN050 FM071700 16011G19KT P6SM SCT050 FM080300 16007KT P6SM OVC015 FM080500 17007KT P6SM VCSH OVC008

Jul-7@
06:00 UTC

Jul-7 @ 06:00 UTC

Jul-7@
10:00 UTC

Jul-7 @ 10:00 UTC

TAF KPVD 070537Z 0706/0806 16004KT P6SM BKN010

Expired

Wind
  • 160° at 4 KTS
Cloud Levels
  • Broken at 1,000' AGL

Jul-7@
10:00 UTC

Jul-7 @ 10:00 UTC

Jul-7@
13:00 UTC

Jul-7 @ 13:00 UTC

FM071000 14003KT P6SM BKN025

Expired

Wind
  • 140° at 3 KTS
Cloud Levels
  • Broken at 2,500' AGL

Jul-7@
13:00 UTC

Jul-7 @ 13:00 UTC

Jul-7@
17:00 UTC

Jul-7 @ 17:00 UTC

FM071300 13005KT P6SM BKN050

Expired

Wind
  • 130° at 5 KTS
Cloud Levels
  • Broken at 5,000' AGL

Jul-7@
17:00 UTC

Jul-7 @ 17:00 UTC

Jul-8@
03:00 UTC

Jul-8 @ 03:00 UTC

FM071700 16011G19KT P6SM SCT050

From

From Standard forecast or significant change

Wind
  • 160° at 11 KTS
  • {Gusting to 19 KTS
Cloud Levels
  • Scattered at 5,000' AGL

Jul-8@
03:00 UTC

Jul-8 @ 03:00 UTC

Jul-8@
05:00 UTC

Jul-8 @ 05:00 UTC

FM080300 16007KT P6SM OVC015

From

From Standard forecast or significant change

Wind
  • 160° at 7 KTS
Cloud Levels
  • Overcast at 1,500' AGL

Jul-8@
05:00 UTC

Jul-8 @ 05:00 UTC

Jul-8@
06:00 UTC

Jul-8 @ 06:00 UTC

FM080500 17007KT P6SM VCSH OVC008

From

From Standard forecast or significant change

Wind
  • 170° at 7 KTS
Conditions
Area Showers
Cloud Levels
  • Overcast at 800' AGL